sensor_id;sensor_type;location;lat;lon;timestamp;pressure;altitude;pressure_sealevel;temperature;humidity
21096;BME280;10706;49.036;12.112;2023-12-28T00:02:00;97904.16;;;5.83;83.10
21096;BME280;10706;49.036;12.112;2023-12-28T00:04:25;97906.97;;;5.62;83.96
21096;BME280;10706;49.036;12.112;2023-12-28T00:06:53;97902.44;;;5.49;84.34
21096;BME280;10706;49.036;12.112;2023-12-28T00:09:19;97908.22;;;5.66;83.81
21096;BME280;10706;49.036;12.112;2023-12-28T00:11:45;97914.38;;;5.25;86.22
21096;BME280;10706;49.036;12.112;2023-12-28T00:14:12;97908.34;;;5.51;85.33
21096;BME280;10706;49.036;12.112;2023-12-28T00:16:38;97915.72;;;5.07;87.09
21096;BME280;10706;49.036;12.112;2023-12-28T00:19:04;97923.81;;;4.99;87.88
21096;BME280;10706;49.036;12.112;2023-12-28T00:21:30;97929.66;;;5.30;85.32
21096;BME280;10706;49.036;12.112;2023-12-28T00:23:56;97927.09;;;5.43;85.46
21096;BME280;10706;49.036;12.112;2023-12-28T00:26:22;97926.09;;;5.51;84.48
21096;BME280;10706;49.036;12.112;2023-12-28T00:28:49;97915.91;;;5.54;85.03
21096;BME280;10706;49.036;12.112;2023-12-28T00:31:15;97922.16;;;5.33;85.53
21096;BME280;10706;49.036;12.112;2023-12-28T00:33:41;97922.16;;;5.33;85.58
21096;BME280;10706;49.036;12.112;2023-12-28T00:36:07;97918.03;;;5.24;85.52
21096;BME280;10706;49.036;12.112;2023-12-28T00:38:33;97920.81;;;5.16;85.84
21096;BME280;10706;49.036;12.112;2023-12-28T00:40:59;97910.47;;;5.21;85.15
21096;BME280;10706;49.036;12.112;2023-12-28T00:43:25;97902.53;;;4.79;87.76
21096;BME280;10706;49.036;12.112;2023-12-28T00:45:51;97902.16;;;4.89;88.56
21096;BME280;10706;49.036;12.112;2023-12-28T00:48:17;97918.25;;;5.29;85.40
21096;BME280;10706;49.036;12.112;2023-12-28T00:50:43;97913.97;;;5.28;85.62
21096;BME280;10706;49.036;12.112;2023-12-28T00:53:09;97903.81;;;4.90;87.31
21096;BME280;10706;49.036;12.112;2023-12-28T00:55:35;97907.69;;;4.94;87.01
21096;BME280;10706;49.036;12.112;2023-12-28T00:58:00;97906.56;;;5.10;85.92
21096;BME280;10706;49.036;12.112;2023-12-28T01:00:26;97916.31;;;4.75;87.43
21096;BME280;10706;49.036;12.112;2023-12-28T01:02:52;97918.66;;;4.91;86.50
21096;BME280;10706;49.036;12.112;2023-12-28T01:05:19;97926.78;;;4.61;87.52
21096;BME280;10706;49.036;12.112;2023-12-28T01:07:46;97927.81;;;4.89;86.19
21096;BME280;10706;49.036;12.112;2023-12-28T01:10:13;97928.91;;;4.73;87.25
21096;BME280;10706;49.036;12.112;2023-12-28T01:12:39;97924.25;;;4.75;86.83
21096;BME280;10706;49.036;12.112;2023-12-28T01:15:05;97939.56;;;4.79;86.23
21096;BME280;10706;49.036;12.112;2023-12-28T01:17:33;97936.72;;;4.81;86.15
21096;BME280;10706;49.036;12.112;2023-12-28T01:19:59;97935.94;;;4.59;87.34
21096;BME280;10706;49.036;12.112;2023-12-28T01:22:25;97930.84;;;4.57;88.26
21096;BME280;10706;49.036;12.112;2023-12-28T01:24:51;97951.72;;;4.74;87.94
21096;BME280;10706;49.036;12.112;2023-12-28T01:27:17;97949.25;;;5.00;86.11
21096;BME280;10706;49.036;12.112;2023-12-28T01:29:43;97939.22;;;4.61;87.88
21096;BME280;10706;49.036;12.112;2023-12-28T01:32:10;97948.19;;;4.66;87.09
21096;BME280;10706;49.036;12.112;2023-12-28T01:34:35;97952.56;;;4.53;87.50
21096;BME280;10706;49.036;12.112;2023-12-28T01:37:01;97956.59;;;4.48;87.22
21096;BME280;10706;49.036;12.112;2023-12-28T01:39:28;97968.63;;;4.51;87.25
21096;BME280;10706;49.036;12.112;2023-12-28T01:41:54;97959.66;;;4.74;87.30
21096;BME280;10706;49.036;12.112;2023-12-28T01:44:21;97953.78;;;4.78;85.89
21096;BME280;10706;49.036;12.112;2023-12-28T01:46:47;97957.97;;;4.44;86.81
21096;BME280;10706;49.036;12.112;2023-12-28T01:49:13;97964.78;;;4.54;86.81
21096;BME280;10706;49.036;12.112;2023-12-28T01:51:39;97967.75;;;4.44;87.46
21096;BME280;10706;49.036;12.112;2023-12-28T01:54:05;97964.13;;;4.45;86.89
21096;BME280;10706;49.036;12.112;2023-12-28T01:56:32;97962.84;;;4.41;87.74
21096;BME280;10706;49.036;12.112;2023-12-28T01:58:58;97958.59;;;4.68;86.23
21096;BME280;10706;49.036;12.112;2023-12-28T02:01:25;97969.06;;;4.55;85.14
21096;BME280;10706;49.036;12.112;2023-12-28T02:03:52;97969.09;;;4.61;85.65
21096;BME280;10706;49.036;12.112;2023-12-28T02:06:18;97963.97;;;4.32;87.25
21096;BME280;10706;49.036;12.112;2023-12-28T02:08:48;97961.88;;;3.84;88.44
21096;BME280;10706;49.036;12.112;2023-12-28T02:11:14;97960.66;;;4.23;88.33
21096;BME280;10706;49.036;12.112;2023-12-28T02:13:41;97964.47;;;4.20;88.55
21096;BME280;10706;49.036;12.112;2023-12-28T02:16:21;97964.69;;;3.82;89.39
21096;BME280;10706;49.036;12.112;2023-12-28T02:18:52;97952.16;;;4.06;87.47
21096;BME280;10706;49.036;12.112;2023-12-28T02:21:20;97963.34;;;4.08;89.11
21096;BME280;10706;49.036;12.112;2023-12-28T02:23:48;97957.03;;;4.09;89.78
21096;BME280;10706;49.036;12.112;2023-12-28T02:26:16;97969.00;;;4.05;88.06
21096;BME280;10706;49.036;12.112;2023-12-28T02:28:42;97941.06;;;4.39;87.62
21096;BME280;10706;49.036;12.112;2023-12-28T02:31:20;97940.44;;;4.37;87.15
21096;BME280;10706;49.036;12.112;2023-12-28T02:33:59;97934.78;;;4.40;86.86
21096;BME280;10706;49.036;12.112;2023-12-28T02:36:30;97926.84;;;4.40;86.01
21096;BME280;10706;49.036;12.112;2023-12-28T02:38:56;97928.06;;;4.16;87.90
21096;BME280;10706;49.036;12.112;2023-12-28T02:41:25;97931.53;;;4.44;87.15
21096;BME280;10706;49.036;12.112;2023-12-28T02:43:51;97927.31;;;4.50;85.83
21096;BME280;10706;49.036;12.112;2023-12-28T02:46:17;97939.66;;;4.43;86.59
21096;BME280;10706;49.036;12.112;2023-12-28T02:48:44;97941.81;;;4.33;87.59
21096;BME280;10706;49.036;12.112;2023-12-28T02:51:10;97943.63;;;4.54;86.25
21096;BME280;10706;49.036;12.112;2023-12-28T02:53:36;97946.69;;;4.57;86.13
21096;BME280;10706;49.036;12.112;2023-12-28T02:56:02;97948.09;;;4.53;85.65
21096;BME280;10706;49.036;12.112;2023-12-28T02:58:28;97939.50;;;4.73;85.01
21096;BME280;10706;49.036;12.112;2023-12-28T03:00:54;97936.31;;;4.56;85.06
21096;BME280;10706;49.036;12.112;2023-12-28T03:03:20;97932.09;;;4.61;85.44
21096;BME280;10706;49.036;12.112;2023-12-28T03:05:46;97947.28;;;4.53;85.39
21096;BME280;10706;49.036;12.112;2023-12-28T03:08:12;97945.34;;;4.40;85.76
21096;BME280;10706;49.036;12.112;2023-12-28T03:10:39;97951.16;;;4.28;85.05
21096;BME280;10706;49.036;12.112;2023-12-28T03:13:05;97952.47;;;4.18;85.63
21096;BME280;10706;49.036;12.112;2023-12-28T03:15:32;97947.84;;;4.48;84.72
21096;BME280;10706;49.036;12.112;2023-12-28T03:17:58;97944.91;;;4.36;85.16
21096;BME280;10706;49.036;12.112;2023-12-28T03:20:24;97944.94;;;4.43;85.16
21096;BME280;10706;49.036;12.112;2023-12-28T03:22:50;97951.91;;;4.22;86.16
21096;BME280;10706;49.036;12.112;2023-12-28T03:25:16;97948.09;;;4.32;86.01
21096;BME280;10706;49.036;12.112;2023-12-28T03:27:42;97954.28;;;4.39;86.13
21096;BME280;10706;49.036;12.112;2023-12-28T03:30:09;97947.81;;;4.20;86.54
21096;BME280;10706;49.036;12.112;2023-12-28T03:32:35;97946.66;;;4.51;84.45
21096;BME280;10706;49.036;12.112;2023-12-28T03:35:01;97939.72;;;4.00;87.47
21096;BME280;10706;49.036;12.112;2023-12-28T03:37:28;97948.06;;;4.25;86.96
21096;BME280;10706;49.036;12.112;2023-12-28T03:39:54;97952.59;;;4.31;86.14
21096;BME280;10706;49.036;12.112;2023-12-28T03:42:20;97958.00;;;4.23;85.89
21096;BME280;10706;49.036;12.112;2023-12-28T03:44:48;97954.16;;;4.04;86.79
21096;BME280;10706;49.036;12.112;2023-12-28T03:47:14;97965.09;;;3.79;88.04
21096;BME280;10706;49.036;12.112;2023-12-28T03:49:39;97955.97;;;4.03;87.98
21096;BME280;10706;49.036;12.112;2023-12-28T03:52:06;97968.31;;;3.96;87.63
21096;BME280;10706;49.036;12.112;2023-12-28T03:54:32;97960.66;;;4.23;86.40
21096;BME280;10706;49.036;12.112;2023-12-28T03:56:58;97955.06;;;4.11;86.95
21096;BME280;10706;49.036;12.112;2023-12-28T03:59:24;97961.69;;;4.07;87.15
21096;BME280;10706;49.036;12.112;2023-12-28T04:01:50;97969.88;;;3.91;88.45
21096;BME280;10706;49.036;12.112;2023-12-28T04:04:16;97961.25;;;4.03;88.25
21096;BME280;10706;49.036;12.112;2023-12-28T04:06:42;97964.38;;;3.92;86.87
21096;BME280;10706;49.036;12.112;2023-12-28T04:09:12;97958.81;;;4.02;87.12
21096;BME280;10706;49.036;12.112;2023-12-28T04:11:38;97968.25;;;3.75;87.40
21096;BME280;10706;49.036;12.112;2023-12-28T04:14:04;97970.84;;;3.68;88.09
21096;BME280;10706;49.036;12.112;2023-12-28T04:16:30;97953.63;;;3.94;86.51
21096;BME280;10706;49.036;12.112;2023-12-28T04:18:56;97973.19;;;3.78;86.81
21096;BME280;10706;49.036;12.112;2023-12-28T04:21:23;97959.97;;;3.78;87.87
21096;BME280;10706;49.036;12.112;2023-12-28T04:23:49;97976.06;;;3.46;88.39
21096;BME280;10706;49.036;12.112;2023-12-28T04:26:18;97971.09;;;3.73;87.96
21096;BME280;10706;49.036;12.112;2023-12-28T04:28:46;97978.63;;;3.91;85.97
21096;BME280;10706;49.036;12.112;2023-12-28T04:31:12;97958.94;;;3.94;86.03
21096;BME280;10706;49.036;12.112;2023-12-28T04:33:38;97970.41;;;3.64;88.27
21096;BME280;10706;49.036;12.112;2023-12-28T04:36:04;97981.69;;;3.43;88.13
21096;BME280;10706;49.036;12.112;2023-12-28T04:38:31;97959.47;;;3.53;88.84
21096;BME280;10706;49.036;12.112;2023-12-28T04:40:58;97960.81;;;3.63;88.43
21096;BME280;10706;49.036;12.112;2023-12-28T04:43:24;97972.34;;;3.77;87.72
21096;BME280;10706;49.036;12.112;2023-12-28T04:45:51;97972.00;;;3.80;86.31
21096;BME280;10706;49.036;12.112;2023-12-28T04:48:17;97983.16;;;3.61;87.98
21096;BME280;10706;49.036;12.112;2023-12-28T04:50:49;97987.34;;;3.40;88.12
21096;BME280;10706;49.036;12.112;2023-12-28T04:53:16;97984.78;;;3.32;88.45
21096;BME280;10706;49.036;12.112;2023-12-28T04:55:42;97986.09;;;3.36;87.87
21096;BME280;10706;49.036;12.112;2023-12-28T04:58:09;97996.50;;;3.00;89.29
21096;BME280;10706;49.036;12.112;2023-12-28T05:00:36;97986.34;;;3.41;88.31
21096;BME280;10706;49.036;12.112;2023-12-28T05:03:02;97987.88;;;3.21;88.75
21096;BME280;10706;49.036;12.112;2023-12-28T05:05:28;97989.34;;;3.38;86.85
21096;BME280;10706;49.036;12.112;2023-12-28T05:07:54;97992.69;;;3.17;87.50
21096;BME280;10706;49.036;12.112;2023-12-28T05:10:20;97984.59;;;3.19;88.54
21096;BME280;10706;49.036;12.112;2023-12-28T05:12:46;97987.00;;;3.14;89.04
21096;BME280;10706;49.036;12.112;2023-12-28T05:15:12;97979.50;;;3.32;87.97
21096;BME280;10706;49.036;12.112;2023-12-28T05:17:38;97977.25;;;3.14;88.48
21096;BME280;10706;49.036;12.112;2023-12-28T05:20:05;97972.69;;;2.93;90.89
21096;BME280;10706;49.036;12.112;2023-12-28T05:22:31;97986.78;;;3.00;90.94
21096;BME280;10706;49.036;12.112;2023-12-28T05:24:57;97986.63;;;3.17;90.14
21096;BME280;10706;49.036;12.112;2023-12-28T05:27:23;97985.97;;;3.29;89.13
21096;BME280;10706;49.036;12.112;2023-12-28T05:29:49;97983.06;;;3.24;88.30
21096;BME280;10706;49.036;12.112;2023-12-28T05:32:15;97978.06;;;3.15;89.81
21096;BME280;10706;49.036;12.112;2023-12-28T05:34:41;97974.34;;;3.39;87.89
21096;BME280;10706;49.036;12.112;2023-12-28T05:37:07;97977.59;;;3.41;88.67
21096;BME280;10706;49.036;12.112;2023-12-28T05:39:33;97973.78;;;3.43;88.47
21096;BME280;10706;49.036;12.112;2023-12-28T05:41:59;97981.25;;;3.40;87.36
21096;BME280;10706;49.036;12.112;2023-12-28T05:44:25;97978.34;;;3.49;87.70
21096;BME280;10706;49.036;12.112;2023-12-28T05:46:51;97972.09;;;3.72;86.33
21096;BME280;10706;49.036;12.112;2023-12-28T05:49:18;97975.88;;;3.33;87.57
21096;BME280;10706;49.036;12.112;2023-12-28T05:51:43;97977.94;;;3.53;87.76
21096;BME280;10706;49.036;12.112;2023-12-28T05:54:10;97982.88;;;3.41;86.87
21096;BME280;10706;49.036;12.112;2023-12-28T05:56:36;97980.69;;;3.59;87.19
21096;BME280;10706;49.036;12.112;2023-12-28T05:59:02;97977.22;;;3.59;86.96
21096;BME280;10706;49.036;12.112;2023-12-28T06:01:28;97980.69;;;3.44;87.05
21096;BME280;10706;49.036;12.112;2023-12-28T06:03:54;97979.75;;;3.67;86.65
21096;BME280;10706;49.036;12.112;2023-12-28T06:06:20;97976.38;;;3.73;85.51
21096;BME280;10706;49.036;12.112;2023-12-28T06:08:46;97984.16;;;3.30;88.40
21096;BME280;10706;49.036;12.112;2023-12-28T06:11:13;97979.25;;;3.57;86.84
21096;BME280;10706;49.036;12.112;2023-12-28T06:13:39;97985.81;;;3.46;87.79
21096;BME280;10706;49.036;12.112;2023-12-28T06:16:04;97966.59;;;3.37;87.17
21096;BME280;10706;49.036;12.112;2023-12-28T06:18:30;97959.59;;;3.29;87.23
21096;BME280;10706;49.036;12.112;2023-12-28T06:20:56;97976.78;;;2.96;89.38
21096;BME280;10706;49.036;12.112;2023-12-28T06:23:22;97971.63;;;3.02;89.72
21096;BME280;10706;49.036;12.112;2023-12-28T06:25:47;97975.41;;;3.00;89.85
21096;BME280;10706;49.036;12.112;2023-12-28T06:28:13;97981.88;;;2.97;90.32
21096;BME280;10706;49.036;12.112;2023-12-28T06:30:39;97977.72;;;3.33;88.39
21096;BME280;10706;49.036;12.112;2023-12-28T06:33:05;97989.44;;;3.30;89.27
21096;BME280;10706;49.036;12.112;2023-12-28T06:35:31;97985.16;;;2.99;90.56
21096;BME280;10706;49.036;12.112;2023-12-28T06:37:56;98000.91;;;3.37;89.42
21096;BME280;10706;49.036;12.112;2023-12-28T06:40:22;97998.34;;;3.59;87.21
21096;BME280;10706;49.036;12.112;2023-12-28T06:42:48;97992.16;;;3.52;88.23
21096;BME280;10706;49.036;12.112;2023-12-28T06:45:15;98004.72;;;3.49;87.80
21096;BME280;10706;49.036;12.112;2023-12-28T06:47:40;98016.91;;;3.50;86.53
21096;BME280;10706;49.036;12.112;2023-12-28T06:50:07;98017.28;;;3.33;88.94
21096;BME280;10706;49.036;12.112;2023-12-28T06:52:33;98014.72;;;3.24;88.82
21096;BME280;10706;49.036;12.112;2023-12-28T06:54:59;98028.00;;;3.16;89.89
21096;BME280;10706;49.036;12.112;2023-12-28T06:57:25;98013.00;;;3.46;88.26
21096;BME280;10706;49.036;12.112;2023-12-28T06:59:51;98025.56;;;3.44;88.58
21096;BME280;10706;49.036;12.112;2023-12-28T07:02:17;98020.63;;;3.56;87.65
21096;BME280;10706;49.036;12.112;2023-12-28T07:04:43;98025.34;;;3.91;86.99
21096;BME280;10706;49.036;12.112;2023-12-28T07:07:09;98022.25;;;3.87;87.69
21096;BME280;10706;49.036;12.112;2023-12-28T07:09:36;98017.63;;;4.11;85.78
21096;BME280;10706;49.036;12.112;2023-12-28T07:12:03;98021.63;;;4.21;85.26
21096;BME280;10706;49.036;12.112;2023-12-28T07:14:29;98028.81;;;4.49;84.42
21096;BME280;10706;49.036;12.112;2023-12-28T07:16:55;98030.94;;;4.39;83.78
21096;BME280;10706;49.036;12.112;2023-12-28T07:19:21;98025.72;;;4.45;82.72
21096;BME280;10706;49.036;12.112;2023-12-28T07:21:47;98032.59;;;4.40;83.33
21096;BME280;10706;49.036;12.112;2023-12-28T07:24:13;98028.41;;;4.52;82.24
21096;BME280;10706;49.036;12.112;2023-12-28T07:26:39;98028.19;;;4.47;81.77
21096;BME280;10706;49.036;12.112;2023-12-28T07:29:05;98041.38;;;4.90;81.34
21096;BME280;10706;49.036;12.112;2023-12-28T07:31:31;98039.78;;;4.67;81.82
21096;BME280;10706;49.036;12.112;2023-12-28T07:33:57;98046.13;;;4.52;82.18
21096;BME280;10706;49.036;12.112;2023-12-28T07:36:24;98031.13;;;4.59;83.61
21096;BME280;10706;49.036;12.112;2023-12-28T07:38:50;98043.41;;;4.88;83.91
21096;BME280;10706;49.036;12.112;2023-12-28T07:41:16;98049.56;;;4.52;83.78
21096;BME280;10706;49.036;12.112;2023-12-28T07:43:42;98048.88;;;4.86;84.55
21096;BME280;10706;49.036;12.112;2023-12-28T07:46:08;98043.97;;;5.12;83.13
21096;BME280;10706;49.036;12.112;2023-12-28T07:48:34;98057.84;;;5.14;82.55
21096;BME280;10706;49.036;12.112;2023-12-28T07:51:07;98048.19;;;5.28;82.16
21096;BME280;10706;49.036;12.112;2023-12-28T07:53:33;98062.94;;;5.15;82.40
21096;BME280;10706;49.036;12.112;2023-12-28T07:56:00;98049.50;;;5.45;80.79
21096;BME280;10706;49.036;12.112;2023-12-28T07:58:26;98056.56;;;5.31;81.97
21096;BME280;10706;49.036;12.112;2023-12-28T08:00:52;98063.63;;;4.96;83.29
21096;BME280;10706;49.036;12.112;2023-12-28T08:03:18;98059.84;;;5.33;82.07
21096;BME280;10706;49.036;12.112;2023-12-28T08:05:45;98056.78;;;5.36;81.65
21096;BME280;10706;49.036;12.112;2023-12-28T08:08:11;98060.91;;;5.45;81.41
21096;BME280;10706;49.036;12.112;2023-12-28T08:10:36;98061.53;;;5.48;81.17
21096;BME280;10706;49.036;12.112;2023-12-28T08:13:02;98050.31;;;5.80;80.83
21096;BME280;10706;49.036;12.112;2023-12-28T08:15:28;98044.78;;;5.75;80.24
21096;BME280;10706;49.036;12.112;2023-12-28T08:17:54;98038.19;;;5.58;81.13
21096;BME280;10706;49.036;12.112;2023-12-28T08:20:20;98023.41;;;5.83;80.52
21096;BME280;10706;49.036;12.112;2023-12-28T08:22:46;98041.06;;;5.28;81.59
21096;BME280;10706;49.036;12.112;2023-12-28T08:25:12;98032.16;;;5.77;80.32
21096;BME280;10706;49.036;12.112;2023-12-28T08:27:38;98031.09;;;5.72;81.20
21096;BME280;10706;49.036;12.112;2023-12-28T08:30:05;98038.13;;;5.51;80.19
21096;BME280;10706;49.036;12.112;2023-12-28T08:32:32;98060.59;;;5.62;80.91
21096;BME280;10706;49.036;12.112;2023-12-28T08:34:58;98060.44;;;5.70;80.26
21096;BME280;10706;49.036;12.112;2023-12-28T08:37:24;98057.44;;;5.80;79.94
21096;BME280;10706;49.036;12.112;2023-12-28T08:39:50;98046.63;;;5.81;79.31
21096;BME280;10706;49.036;12.112;2023-12-28T08:42:16;98048.09;;;5.84;78.96
21096;BME280;10706;49.036;12.112;2023-12-28T08:44:42;98063.28;;;5.97;78.83
21096;BME280;10706;49.036;12.112;2023-12-28T08:47:07;98074.53;;;5.71;79.86
21096;BME280;10706;49.036;12.112;2023-12-28T08:49:33;98066.41;;;6.20;78.40
21096;BME280;10706;49.036;12.112;2023-12-28T08:52:00;98071.84;;;5.99;78.85
21096;BME280;10706;49.036;12.112;2023-12-28T08:54:26;98082.50;;;6.19;78.77
21096;BME280;10706;49.036;12.112;2023-12-28T08:56:51;98076.78;;;6.15;78.30
21096;BME280;10706;49.036;12.112;2023-12-28T08:59:18;98078.47;;;6.30;77.75
21096;BME280;10706;49.036;12.112;2023-12-28T09:01:44;98078.69;;;6.41;77.59
21096;BME280;10706;49.036;12.112;2023-12-28T09:04:11;98086.84;;;5.92;78.43
21096;BME280;10706;49.036;12.112;2023-12-28T09:06:37;98073.59;;;5.92;80.07
21096;BME280;10706;49.036;12.112;2023-12-28T09:09:03;98084.56;;;6.23;78.13
21096;BME280;10706;49.036;12.112;2023-12-28T09:11:29;98081.19;;;6.50;77.64
21096;BME280;10706;49.036;12.112;2023-12-28T09:13:55;98072.84;;;6.59;76.53
21096;BME280;10706;49.036;12.112;2023-12-28T09:16:21;98082.59;;;6.39;76.98
21096;BME280;10706;49.036;12.112;2023-12-28T09:18:47;98074.09;;;6.90;76.44
21096;BME280;10706;49.036;12.112;2023-12-28T09:21:12;98088.50;;;6.41;77.53
21096;BME280;10706;49.036;12.112;2023-12-28T09:23:38;98081.25;;;6.08;78.79
21096;BME280;10706;49.036;12.112;2023-12-28T09:26:06;98089.59;;;6.12;78.95
21096;BME280;10706;49.036;12.112;2023-12-28T09:28:33;98087.31;;;6.02;79.16
21096;BME280;10706;49.036;12.112;2023-12-28T09:31:01;98086.47;;;6.36;77.65
21096;BME280;10706;49.036;12.112;2023-12-28T09:33:27;98086.94;;;6.67;77.01
21096;BME280;10706;49.036;12.112;2023-12-28T09:35:53;98088.81;;;6.86;75.74
21096;BME280;10706;49.036;12.112;2023-12-28T09:38:19;98079.34;;;6.50;77.81
21096;BME280;10706;49.036;12.112;2023-12-28T09:40:46;98081.53;;;6.40;77.37
21096;BME280;10706;49.036;12.112;2023-12-28T09:43:25;98085.38;;;6.24;77.20
21096;BME280;10706;49.036;12.112;2023-12-28T09:45:52;98078.50;;;6.36;77.26
21096;BME280;10706;49.036;12.112;2023-12-28T09:48:20;98051.03;;;6.84;75.52
21096;BME280;10706;49.036;12.112;2023-12-28T09:50:54;98054.22;;;6.33;77.07
21096;BME280;10706;49.036;12.112;2023-12-28T09:53:25;98058.72;;;6.39;76.79
21096;BME280;10706;49.036;12.112;2023-12-28T09:55:51;98052.53;;;6.18;77.75
21096;BME280;10706;49.036;12.112;2023-12-28T10:01:51;98063.59;;;6.35;77.21
21096;BME280;10706;49.036;12.112;2023-12-28T10:04:41;98066.72;;;6.59;76.57
21096;BME280;10706;49.036;12.112;2023-12-28T10:07:47;98058.00;;;6.98;75.38
21096;BME280;10706;49.036;12.112;2023-12-28T10:10:19;98056.56;;;7.03;74.42
21096;BME280;10706;49.036;12.112;2023-12-28T10:13:09;98056.34;;;7.17;74.04
21096;BME280;10706;49.036;12.112;2023-12-28T10:15:38;98042.66;;;7.07;74.79
21096;BME280;10706;49.036;12.112;2023-12-28T10:18:07;98045.50;;;6.79;75.32
21096;BME280;10706;49.036;12.112;2023-12-28T10:20:33;98049.53;;;6.41;76.44
21096;BME280;10706;49.036;12.112;2023-12-28T10:23:02;98043.25;;;6.96;74.81
21096;BME280;10706;49.036;12.112;2023-12-28T10:25:28;98041.44;;;6.96;75.03
21096;BME280;10706;49.036;12.112;2023-12-28T10:27:55;98029.97;;;7.36;73.40
21096;BME280;10706;49.036;12.112;2023-12-28T10:30:21;98044.09;;;6.96;73.22
21096;BME280;10706;49.036;12.112;2023-12-28T10:32:48;98028.97;;;6.64;75.16
21096;BME280;10706;49.036;12.112;2023-12-28T10:35:14;98019.59;;;6.61;75.65
21096;BME280;10706;49.036;12.112;2023-12-28T10:37:41;98010.38;;;6.50;76.10
21096;BME280;10706;49.036;12.112;2023-12-28T10:40:11;98005.88;;;6.44;77.52
21096;BME280;10706;49.036;12.112;2023-12-28T10:43:01;98011.38;;;6.36;77.32
21096;BME280;10706;49.036;12.112;2023-12-28T10:45:31;98003.03;;;6.79;76.40
21096;BME280;10706;49.036;12.112;2023-12-28T10:48:11;98022.59;;;6.51;76.92
21096;BME280;10706;49.036;12.112;2023-12-28T10:50:43;98015.50;;;7.12;74.84
21096;BME280;10706;49.036;12.112;2023-12-28T10:53:30;98014.66;;;6.58;76.48
21096;BME280;10706;49.036;12.112;2023-12-28T10:56:13;98012.66;;;6.67;76.51
21096;BME280;10706;49.036;12.112;2023-12-28T10:58:55;98010.13;;;6.32;77.66
21096;BME280;10706;49.036;12.112;2023-12-28T11:01:27;97998.34;;;6.48;77.47
21096;BME280;10706;49.036;12.112;2023-12-28T11:04:23;97993.03;;;6.41;77.58
21096;BME280;10706;49.036;12.112;2023-12-28T11:06:50;97983.97;;;6.02;78.69
21096;BME280;10706;49.036;12.112;2023-12-28T11:09:17;97979.78;;;6.68;76.38
21096;BME280;10706;49.036;12.112;2023-12-28T11:11:44;97981.78;;;6.32;77.42
21096;BME280;10706;49.036;12.112;2023-12-28T11:14:13;97985.41;;;6.05;78.13
21096;BME280;10706;49.036;12.112;2023-12-28T11:16:43;97976.72;;;6.57;76.83
21096;BME280;10706;49.036;12.112;2023-12-28T11:19:11;97970.78;;;6.75;75.53
21096;BME280;10706;49.036;12.112;2023-12-28T11:21:37;97968.75;;;6.64;74.85
21096;BME280;10706;49.036;12.112;2023-12-28T11:24:05;97969.56;;;6.91;75.41
21096;BME280;10706;49.036;12.112;2023-12-28T11:26:34;97961.00;;;6.82;75.37
21096;BME280;10706;49.036;12.112;2023-12-28T11:29:04;97970.16;;;7.00;75.25
21096;BME280;10706;49.036;12.112;2023-12-28T11:31:34;97961.13;;;7.34;74.44
21096;BME280;10706;49.036;12.112;2023-12-28T11:34:06;97956.31;;;6.91;74.66
21096;BME280;10706;49.036;12.112;2023-12-28T11:36:47;97958.53;;;6.68;76.02
21096;BME280;10706;49.036;12.112;2023-12-28T11:39:33;97947.13;;;6.87;76.35
21096;BME280;10706;49.036;12.112;2023-12-28T11:42:05;97947.28;;;7.06;74.20
21096;BME280;10706;49.036;12.112;2023-12-28T11:44:57;97952.78;;;7.11;74.60
21096;BME280;10706;49.036;12.112;2023-12-28T11:47:27;97960.19;;;6.75;75.53
21096;BME280;10706;49.036;12.112;2023-12-28T11:49:53;97947.13;;;6.87;75.45
21096;BME280;10706;49.036;12.112;2023-12-28T11:52:38;97964.88;;;6.80;75.31
21096;BME280;10706;49.036;12.112;2023-12-28T11:55:06;97964.19;;;7.31;74.39
21096;BME280;10706;49.036;12.112;2023-12-28T11:57:32;97953.34;;;7.26;74.42
21096;BME280;10706;49.036;12.112;2023-12-28T12:00:04;97962.38;;;7.25;74.04
21096;BME280;10706;49.036;12.112;2023-12-28T12:02:36;97972.50;;;7.55;72.57
21096;BME280;10706;49.036;12.112;2023-12-28T12:05:28;97981.94;;;7.44;73.42
21096;BME280;10706;49.036;12.112;2023-12-28T12:07:55;97981.16;;;7.89;70.95
21096;BME280;10706;49.036;12.112;2023-12-28T12:10:30;97984.72;;;7.63;72.00
21096;BME280;10706;49.036;12.112;2023-12-28T12:13:20;97988.88;;;7.32;73.09
21096;BME280;10706;49.036;12.112;2023-12-28T12:15:51;97985.38;;;7.45;72.71
21096;BME280;10706;49.036;12.112;2023-12-28T12:18:20;97983.34;;;7.98;71.93
21096;BME280;10706;49.036;12.112;2023-12-28T12:20:46;97973.44;;;7.74;71.14
21096;BME280;10706;49.036;12.112;2023-12-28T12:23:12;97973.72;;;7.59;71.90
21096;BME280;10706;49.036;12.112;2023-12-28T12:25:40;97967.69;;;7.25;72.00
21096;BME280;10706;49.036;12.112;2023-12-28T12:28:09;97964.22;;;7.18;72.23
21096;BME280;10706;49.036;12.112;2023-12-28T12:30:58;97959.88;;;7.89;70.91
21096;BME280;10706;49.036;12.112;2023-12-28T12:33:28;97973.78;;;7.84;70.02
21096;BME280;10706;49.036;12.112;2023-12-28T12:35:55;97970.88;;;7.99;68.94
21096;BME280;10706;49.036;12.112;2023-12-28T12:38:22;97971.63;;;8.13;68.30
21096;BME280;10706;49.036;12.112;2023-12-28T12:40:51;97964.50;;;8.45;68.06
21096;BME280;10706;49.036;12.112;2023-12-28T12:43:17;97964.97;;;8.61;67.82
21096;BME280;10706;49.036;12.112;2023-12-28T12:48:13;97957.72;;;8.43;68.94
21096;BME280;10706;49.036;12.112;2023-12-28T12:50:50;97956.91;;;7.65;69.70
21096;BME280;10706;49.036;12.112;2023-12-28T12:53:19;97967.13;;;7.68;71.27
21096;BME280;10706;49.036;12.112;2023-12-28T12:55:53;97958.09;;;7.76;70.90
21096;BME280;10706;49.036;12.112;2023-12-28T12:58:28;97962.97;;;8.24;70.53
21096;BME280;10706;49.036;12.112;2023-12-28T13:01:05;97941.44;;;8.26;69.01
21096;BME280;10706;49.036;12.112;2023-12-28T13:03:37;97942.44;;;8.31;70.15
21096;BME280;10706;49.036;12.112;2023-12-28T13:06:36;97951.84;;;7.57;71.28
21096;BME280;10706;49.036;12.112;2023-12-28T13:09:12;97922.56;;;7.64;71.73
21096;BME280;10706;49.036;12.112;2023-12-28T13:11:41;97926.28;;;7.63;72.30